Time;durP1;ratioP1;P1;durP2;ratioP2;P2;SDS_P1;SDS_P2;PMS_P1;PMS_P2;Temp;Humidity;BMP_temperature;BMP_pressure;BME280_temperature;BME280_humidity;BME280_pressure;Samples;Min_cycle;Max_cycle;Signal;HPM_P1;HPM_P2
2022/06/27 00:01:57;;;;;;;6.27;2.20;;;;;;;21.17;88.97;100370.34;5031349;28;20617;-66
2022/06/27 00:04:26;;;;;;;4.20;2.27;;;;;;;21.13;91.39;100377.22;5026904;28;20270;-66
2022/06/27 00:06:54;;;;;;;5.57;2.53;;;;;;;21.10;91.27;100372.28;5024148;28;20292;-66
2022/06/27 00:09:22;;;;;;;4.70;2.20;;;;;;;21.01;92.81;100360.94;5024843;28;20304;-66
2022/06/27 00:11:50;;;;;;;6.50;2.10;;;;;;;21.02;91.64;100363.38;5025307;28;20279;-66
2022/06/27 00:14:18;;;;;;;5.90;2.20;;;;;;;20.98;93.32;100366.75;5026902;28;20209;-66
2022/06/27 00:16:46;;;;;;;17.80;2.80;;;;;;;20.92;94.61;100381.94;5025993;28;20638;-66
2022/06/27 00:19:16;;;;;;;6.93;2.67;;;;;;;20.94;94.96;100376.31;5024773;28;20211;-67
2022/06/27 00:21:45;;;;;;;9.73;2.87;;;;;;;21.04;94.54;100392.81;5025474;28;20340;-65
2022/06/27 00:24:13;;;;;;;8.93;3.13;;;;;;;21.08;94.46;100421.03;5024056;28;20259;-66
2022/06/27 00:26:41;;;;;;;11.53;2.90;;;;;;;21.20;93.93;100416.59;5026296;28;20245;-67
2022/06/27 00:29:09;;;;;;;6.07;3.27;;;;;;;21.22;92.70;100421.75;5028221;28;20654;-67
2022/06/27 00:31:38;;;;;;;7.50;2.80;;;;;;;21.12;94.86;100454.56;5024564;28;20681;-67
2022/06/27 00:34:06;;;;;;;4.43;2.67;;;;;;;21.01;95.62;100477.69;5025622;28;20559;-67
2022/06/27 00:36:34;;;;;;;5.70;2.90;;;;;;;20.95;95.30;100475.00;5027192;28;20208;-66
2022/06/27 00:39:03;;;;;;;7.93;3.33;;;;;;;20.95;97.37;100480.38;5026326;28;20732;-65
2022/06/27 00:41:31;;;;;;;5.33;3.43;;;;;;;20.93;98.47;100480.59;5027341;28;20286;-65
2022/06/27 00:43:59;;;;;;;6.37;3.87;;;;;;;20.93;98.46;100477.09;5023848;28;20213;-66
2022/06/27 00:46:26;;;;;;;11.93;3.60;;;;;;;20.92;98.96;100475.44;5025510;28;20211;-66
2022/06/27 00:48:54;;;;;;;7.33;2.93;;;;;;;20.96;98.93;100465.88;5024061;28;20571;-66
2022/06/27 00:51:24;;;;;;;7.50;3.43;;;;;;;20.96;97.63;100445.13;5024818;28;20204;-66
2022/06/27 00:53:53;;;;;;;6.73;3.03;;;;;;;20.89;98.43;100425.50;5024844;28;20208;-67
2022/06/27 00:56:22;;;;;;;3.73;2.63;;;;;;;20.83;98.68;100407.50;5024945;28;20273;-67
2022/06/27 00:58:50;;;;;;;4.90;2.43;;;;;;;20.77;99.10;100392.16;5028758;28;20228;-67
2022/06/27 01:01:18;;;;;;;4.77;2.80;;;;;;;20.75;99.94;100378.13;5022860;28;20212;-67
2022/06/27 01:03:46;;;;;;;5.43;2.90;;;;;;;20.82;99.35;100378.06;5025155;28;20213;-66
2022/06/27 01:06:14;;;;;;;5.20;2.90;;;;;;;20.85;100.00;100378.44;5035875;28;20216;-67
2022/06/27 01:08:42;;;;;;;6.03;2.80;;;;;;;20.85;99.67;100383.00;5026578;28;20204;-65
2022/06/27 01:11:10;;;;;;;7.10;3.03;;;;;;;20.81;100.00;100385.31;5026500;28;20744;-66
2022/06/27 01:13:39;;;;;;;8.20;3.53;;;;;;;20.86;100.00;100381.97;5028119;28;20223;-66
2022/06/27 01:16:07;;;;;;;6.93;2.57;;;;;;;20.95;100.00;100388.75;5024439;28;20217;-66
2022/06/27 01:18:36;;;;;;;4.70;2.27;;;;;;;21.04;99.42;100387.44;5021958;28;20256;-68
2022/06/27 01:21:04;;;;;;;5.57;2.23;;;;;;;21.12;98.48;100373.69;5027437;28;20240;-66
2022/06/27 01:23:34;;;;;;;7.53;2.93;;;;;;;21.21;96.91;100355.41;5024468;28;20216;-67
2022/06/27 01:26:02;;;;;;;5.20;2.33;;;;;;;21.22;96.11;100338.19;5030766;28;20213;-67
2022/06/27 01:28:30;;;;;;;6.40;2.30;;;;;;;21.23;96.32;100332.56;5030751;28;20229;-66
2022/06/27 01:30:58;;;;;;;4.83;2.27;;;;;;;21.23;96.79;100311.00;5029596;28;20233;-65
2022/06/27 01:33:26;;;;;;;3.20;1.83;;;;;;;21.20;97.00;100289.84;5029020;28;20684;-66
2022/06/27 01:36:41;;;;;;;7.43;1.97;;;;;;;21.09;97.05;100292.44;5028593;28;20270;-66
2022/06/27 01:38:43;;;;;;;3.83;1.87;;;;;;;21.10;98.13;100294.91;5029051;28;20224;-66
2022/06/27 01:41:11;;;;;;;2.13;1.43;;;;;;;21.07;97.36;100298.03;5041508;28;20216;-66
2022/06/27 01:43:39;;;;;;;2.43;1.43;;;;;;;21.12;97.26;100310.84;5027028;28;20291;-66
2022/06/27 01:46:06;;;;;;;2.87;1.60;;;;;;;21.13;96.37;100316.03;5026947;28;20277;-66
2022/06/27 01:48:35;;;;;;;3.03;1.30;;;;;;;21.12;96.58;100322.47;5030311;28;20232;-67
2022/06/27 01:51:04;;;;;;;2.27;1.43;;;;;;;21.16;96.72;100314.78;5028399;28;20216;-67
2022/06/27 01:53:32;;;;;;;3.43;1.53;;;;;;;21.22;96.60;100322.81;5026880;28;20209;-67
2022/06/27 01:56:01;;;;;;;3.03;1.50;;;;;;;21.28;95.46;100324.66;5027520;28;20356;-66
2022/06/27 01:58:29;;;;;;;5.77;1.70;;;;;;;21.24;94.59;100306.44;5028734;28;20906;-66
2022/06/27 02:00:57;;;;;;;3.23;1.30;;;;;;;21.22;96.15;100295.84;5030588;28;20211;-66
2022/06/27 02:03:26;;;;;;;5.63;1.83;;;;;;;21.24;96.27;100301.03;5026915;28;20615;-65
2022/06/27 02:05:54;;;;;;;2.87;1.57;;;;;;;21.24;96.09;100291.06;5029836;28;20901;-66
2022/06/27 02:08:23;;;;;;;6.10;1.57;;;;;;;21.17;95.58;100293.00;5029662;28;20295;-66
2022/06/27 02:10:50;;;;;;;2.13;1.53;;;;;;;21.24;95.44;100296.47;5029281;28;20299;-67
2022/06/27 02:13:20;;;;;;;3.40;1.87;;;;;;;21.24;95.72;100288.38;5026461;28;20291;-66
2022/06/27 02:16:06;;;;;;;2.73;1.73;;;;;;;21.21;96.51;100275.31;5025231;28;20766;-66
2022/06/27 02:18:35;;;;;;;5.03;1.60;;;;;;;21.17;95.91;100257.97;5027595;28;20237;-66
2022/06/27 02:21:03;;;;;;;2.87;2.03;;;;;;;21.12;96.01;100254.22;5028209;28;20235;-66
2022/06/27 02:23:32;;;;;;;4.20;2.17;;;;;;;21.06;96.64;100245.19;5027894;28;20632;-65
2022/06/27 02:26:01;;;;;;;3.07;1.90;;;;;;;21.09;97.83;100252.81;5026111;28;20267;-66
2022/06/27 02:28:30;;;;;;;5.13;2.37;;;;;;;21.09;98.31;100270.88;5028627;28;20204;-66
2022/06/27 02:30:58;;;;;;;4.43;1.80;;;;;;;21.11;98.19;100266.88;5025052;28;20745;-66
2022/06/27 02:33:33;;;;;;;4.40;2.10;;;;;;;21.15;97.08;100237.63;5028550;28;20294;-65
2022/06/27 02:36:03;;;;;;;4.20;2.40;;;;;;;21.04;98.85;100223.81;5026571;28;20216;-66
2022/06/27 02:38:32;;;;;;;4.63;2.10;;;;;;;20.94;98.84;100222.69;5028941;28;20228;-66
2022/06/27 02:41:03;;;;;;;3.87;2.40;;;;;;;20.90;98.60;100226.88;5029665;28;20572;-66
2022/06/27 02:43:34;;;;;;;3.40;2.10;;;;;;;20.94;98.81;100219.97;5025193;28;20217;-66
2022/06/27 02:46:02;;;;;;;6.20;2.57;;;;;;;20.98;99.00;100191.56;5025960;28;20240;-66
2022/06/27 02:48:33;;;;;;;4.87;2.50;;;;;;;21.06;98.55;100179.66;5022669;28;20220;-66
2022/06/27 02:51:06;;;;;;;4.50;2.30;;;;;;;21.05;98.27;100205.78;5028895;28;20235;-65
2022/06/27 02:53:42;;;;;;;3.00;2.20;;;;;;;21.04;99.10;100217.59;5032099;28;20212;-66
2022/06/27 02:56:13;;;;;;;4.93;2.80;;;;;;;21.06;98.93;100196.66;5024920;28;20327;-66
2022/06/27 02:58:46;;;;;;;4.20;2.47;;;;;;;21.05;98.36;100205.78;5028556;28;20225;-66
2022/06/27 03:01:16;;;;;;;5.03;2.37;;;;;;;21.10;97.78;100234.78;5036694;28;20212;-66
2022/06/27 03:03:45;;;;;;;4.20;2.90;;;;;;;21.11;97.59;100258.81;5032670;28;20201;-66
2022/06/27 03:06:14;;;;;;;5.90;2.90;;;;;;;21.13;97.72;100272.88;5029051;28;20655;-66
2022/06/27 03:08:43;;;;;;;5.10;2.70;;;;;;;21.16;98.01;100285.94;5027283;28;20212;-66
2022/06/27 03:11:12;;;;;;;5.27;2.80;;;;;;;21.18;97.17;100302.75;5021757;28;20209;-66
2022/06/27 03:13:42;;;;;;;3.80;2.70;;;;;;;21.19;96.38;100307.09;5026183;28;20217;-66
2022/06/27 03:16:11;;;;;;;6.20;3.67;;;;;;;21.13;96.39;100293.63;5022799;28;20235;-66
2022/06/27 03:18:39;;;;;;;6.27;4.00;;;;;;;21.08;96.06;100286.22;5027289;28;20319;-66
2022/06/27 03:21:07;;;;;;;6.67;4.23;;;;;;;21.05;95.96;100270.47;5024713;28;20209;-66
2022/06/27 03:23:35;;;;;;;5.87;4.53;;;;;;;21.08;95.99;100270.03;5026225;28;20693;-66
2022/06/27 03:26:03;;;;;;;8.47;5.07;;;;;;;21.08;96.18;100263.81;5029361;28;20283;-67
2022/06/27 03:28:31;;;;;;;7.80;5.30;;;;;;;21.07;95.83;100244.13;5026921;28;20219;-66
2022/06/27 03:31:00;;;;;;;5.77;5.17;;;;;;;21.10;95.81;100251.78;5024400;28;20714;-66
2022/06/27 03:33:28;;;;;;;9.07;4.90;;;;;;;21.10;95.57;100265.25;5025291;28;20264;-66
2022/06/27 03:36:01;;;;;;;7.00;5.30;;;;;;;21.08;96.08;100259.25;5027950;28;20215;-66
2022/06/27 03:38:29;;;;;;;8.07;5.50;;;;;;;21.10;96.09;100254.47;5026432;28;20240;-66
2022/06/27 03:40:58;;;;;;;8.67;6.07;;;;;;;21.12;95.54;100270.41;5035995;28;20209;-66
2022/06/27 03:43:26;;;;;;;6.97;5.90;;;;;;;21.11;95.14;100276.88;5026152;28;20296;-66
2022/06/27 03:45:54;;;;;;;7.73;5.53;;;;;;;21.09;95.62;100274.41;5024087;28;20263;-66
2022/06/27 03:51:10;;;;;;;8.03;5.30;;;;;;;21.08;94.93;100277.31;5022370;28;20201;-66
2022/06/27 03:53:39;;;;;;;12.33;5.90;;;;;;;21.13;94.96;100275.59;5023205;28;20613;-66
2022/06/27 03:56:07;;;;;;;9.17;5.10;;;;;;;21.12;94.54;100270.41;5025377;28;20325;-67
2022/06/27 03:58:35;;;;;;;7.87;5.73;;;;;;;21.13;94.92;100275.59;5024690;28;20296;-66
2022/06/27 04:01:03;;;;;;;6.83;4.30;;;;;;;21.13;95.60;100297.16;5023548;28;20204;-66
2022/06/27 04:03:33;;;;;;;7.37;5.60;;;;;;;21.15;95.98;100308.56;5024679;28;20223;-66
2022/06/27 04:06:01;;;;;;;7.63;5.60;;;;;;;21.14;95.40;100312.28;5019078;28;20218;-65
2022/06/27 04:08:29;;;;;;;7.27;5.87;;;;;;;21.15;95.32;100319.34;5032759;28;20205;-66
2022/06/27 04:10:57;;;;;;;12.13;6.90;;;;;;;21.14;95.24;100317.69;5025410;28;20251;-67
2022/06/27 04:13:25;;;;;;;10.43;7.13;;;;;;;21.17;95.55;100311.88;5025122;28;20205;-67
2022/06/27 04:15:53;;;;;;;9.33;6.77;;;;;;;21.20;95.20;100308.72;5027256;28;20707;-66
2022/06/27 04:18:20;;;;;;;12.07;8.70;;;;;;;21.22;95.79;100309.34;5026910;28;20242;-66
2022/06/27 04:20:50;;;;;;;6.97;6.23;;;;;;;21.23;95.07;100316.38;5030875;28;20312;-66
2022/06/27 04:23:18;;;;;;;8.93;6.60;;;;;;;21.25;95.17;100335.88;5024706;28;20293;-66
2022/06/27 04:25:46;;;;;;;7.63;6.83;;;;;;;21.27;94.99;100347.28;5026798;28;20304;-66
2022/06/27 04:28:13;;;;;;;9.47;7.30;;;;;;;21.28;95.06;100340.84;5026769;28;20272;-65
2022/06/27 04:30:41;;;;;;;7.37;6.63;;;;;;;21.31;94.50;100328.75;5020860;28;20229;-65
2022/06/27 04:33:10;;;;;;;8.37;6.80;;;;;;;21.32;94.55;100325.84;5022146;28;20209;-65
2022/06/27 04:35:40;;;;;;;9.17;7.57;;;;;;;21.33;94.71;100327.50;5028665;28;20263;-65
2022/06/27 04:38:09;;;;;;;11.17;9.00;;;;;;;21.28;94.57;100313.88;5023421;28;20299;-65
2022/06/27 04:40:38;;;;;;;10.77;9.10;;;;;;;21.17;96.70;100311.88;5029337;28;20225;-65
2022/06/27 04:43:10;;;;;;;11.60;10.13;;;;;;;21.17;95.37;100327.22;5023408;28;20216;-65
2022/06/27 04:45:38;;;;;;;12.67;9.73;;;;;;;21.16;95.98;100342.56;5028994;28;20243;-65
2022/06/27 04:48:07;;;;;;;11.63;10.20;;;;;;;21.23;96.00;100335.25;5029215;28;20213;-65
2022/06/27 04:50:36;;;;;;;13.07;10.17;;;;;;;21.21;96.61;100334.66;5025824;28;20204;-64
2022/06/27 04:53:05;;;;;;;10.90;9.60;;;;;;;21.23;96.36;100337.13;5027358;28;20323;-66
2022/06/27 04:55:36;;;;;;;15.00;9.80;;;;;;;21.27;95.68;100349.16;5026656;28;20271;-64
2022/06/27 04:58:03;;;;;;;14.13;10.60;;;;;;;21.27;96.06;100362.63;5028340;28;20210;-66
2022/06/27 05:00:31;;;;;;;16.67;9.40;;;;;;;21.28;96.74;100372.38;5020992;28;20658;-64
2022/06/27 05:03:00;;;;;;;17.80;11.10;;;;;;;21.25;97.21;100362.84;5020519;28;20236;-67
2022/06/27 05:05:28;;;;;;;14.33;10.93;;;;;;;21.23;97.52;100375.72;5019934;28;20654;-65
2022/06/27 05:07:57;;;;;;;13.10;10.13;;;;;;;21.23;97.95;100381.09;5023369;28;20209;-66
2022/06/27 05:10:25;;;;;;;10.67;9.57;;;;;;;21.20;97.82;100381.53;5022858;28;20212;-66
2022/06/27 05:12:55;;;;;;;10.87;8.10;;;;;;;21.12;98.29;100381.78;5026633;28;20208;-66
2022/06/27 05:15:23;;;;;;;14.00;9.03;;;;;;;21.07;99.67;100375.41;5019860;28;20673;-65
2022/06/27 05:17:50;;;;;;;12.93;9.33;;;;;;;21.01;100.00;100360.94;5020839;28;20299;-66
2022/06/27 05:20:18;;;;;;;11.37;8.23;;;;;;;21.07;99.10;100381.63;5023728;28;20310;-66
2022/06/27 05:22:46;;;;;;;12.10;8.60;;;;;;;21.15;98.09;100405.63;5018762;28;20234;-69
2022/06/27 05:25:15;;;;;;;14.70;9.23;;;;;;;21.17;99.54;100408.97;5021868;28;20223;-67
2022/06/27 05:27:43;;;;;;;14.70;9.50;;;;;;;21.20;99.64;100395.03;5029533;28;20209;-68
2022/06/27 05:30:15;;;;;;;11.73;9.23;;;;;;;21.26;98.97;100385.25;5026812;28;20208;-68
2022/06/27 05:32:43;;;;;;;16.73;9.70;;;;;;;21.30;99.28;100387.25;5027186;28;20209;-68
2022/06/27 05:35:11;;;;;;;17.33;9.63;;;;;;;21.32;98.74;100385.19;5028605;28;20296;-66
2022/06/27 05:37:39;;;;;;;11.73;9.17;;;;;;;21.44;98.69;100382.59;5033807;28;20205;-66
2022/06/27 05:40:09;;;;;;;10.87;8.30;;;;;;;21.50;97.91;100375.50;5020606;28;20574;-66
2022/06/27 05:42:38;;;;;;;16.23;8.60;;;;;;;21.52;97.09;100382.31;5020430;28;20200;-66
2022/06/27 05:45:06;;;;;;;20.13;8.50;;;;;;;21.56;97.35;100379.97;5024642;28;20266;-65
2022/06/27 05:47:35;;;;;;;16.20;7.73;;;;;;;21.60;97.62;100386.59;5021530;28;20291;-66
2022/06/27 05:50:08;;;;;;;13.50;8.00;;;;;;;21.57;98.61;100392.44;5014575;28;20225;-66
2022/06/27 05:52:36;;;;;;;14.90;8.47;;;;;;;21.53;99.80;100402.03;5020318;28;20267;-65
2022/06/27 05:55:05;;;;;;;7.03;5.07;;;;;;;21.52;98.13;100411.16;5018297;28;20492;-66
2022/06/27 05:57:33;;;;;;;9.60;4.80;;;;;;;21.56;97.81;100425.84;5005741;28;20214;-66
2022/06/27 06:00:02;;;;;;;14.10;4.60;;;;;;;21.63;97.00;100430.16;5010589;28;20713;-66
2022/06/27 06:02:30;;;;;;;8.10;4.67;;;;;;;21.62;97.00;100427.69;5025658;28;20300;-66
2022/06/27 06:05:01;;;;;;;5.00;3.40;;;;;;;21.55;97.26;100433.13;5035499;28;20208;-66
2022/06/27 06:07:30;;;;;;;9.20;3.20;;;;;;;21.53;97.19;100435.22;5038619;28;20662;-66
2022/06/27 06:09:58;;;;;;;9.10;3.90;;;;;;;21.50;97.70;100418.66;5033357;28;20315;-66
2022/06/27 06:12:26;;;;;;;6.40;3.90;;;;;;;21.42;98.85;100408.97;5032163;28;20247;-66
2022/06/27 06:14:55;;;;;;;10.23;4.13;;;;;;;21.40;99.02;100398.38;5033498;28;20678;-66
2022/06/27 06:17:24;;;;;;;10.27;3.70;;;;;;;21.42;99.86;100411.66;5031628;28;20721;-67
2022/06/27 06:19:54;;;;;;;7.30;3.63;;;;;;;21.44;98.65;100404.19;5032931;28;20212;-65
2022/06/27 06:22:24;;;;;;;8.10;3.57;;;;;;;21.47;97.51;100411.00;5032399;28;20275;-66
2022/06/27 06:24:52;;;;;;;5.37;3.37;;;;;;;21.43;98.27;100410.63;5018489;28;20259;-66
2022/06/27 06:27:21;;;;;;;9.23;4.07;;;;;;;21.42;99.08;100417.06;5032305;28;20216;-66
2022/06/27 06:29:49;;;;;;;8.17;4.23;;;;;;;21.44;99.64;100424.94;5033275;28;20613;-66
2022/06/27 06:32:17;;;;;;;8.60;4.63;;;;;;;21.41;100.00;100426.19;5031803;28;20225;-66
2022/06/27 06:34:45;;;;;;;6.80;4.97;;;;;;;21.46;99.60;100414.75;5032971;28;20220;-66
2022/06/27 06:37:13;;;;;;;10.40;4.93;;;;;;;21.45;98.08;100413.94;5032784;28;20224;-65
2022/06/27 06:39:43;;;;;;;6.77;4.57;;;;;;;21.52;97.44;100419.25;5032794;28;20205;-66
2022/06/27 06:42:12;;;;;;;5.40;4.63;;;;;;;21.58;96.98;100424.59;5032991;28;20311;-67
2022/06/27 06:44:46;;;;;;;8.27;5.10;;;;;;;21.63;98.10;100418.56;5033306;28;20233;-68
2022/06/27 06:47:14;;;;;;;11.57;5.10;;;;;;;21.62;99.85;100427.69;5032934;28;20662;-67
2022/06/27 06:49:44;;;;;;;6.73;5.30;;;;;;;21.66;99.84;100436.97;5032581;28;20232;-67
2022/06/27 06:52:12;;;;;;;8.00;5.60;;;;;;;21.72;98.91;100434.22;5024140;28;20205;-67
2022/06/27 06:54:41;;;;;;;8.13;4.83;;;;;;;21.82;97.62;100438.28;5032510;28;20252;-66
2022/06/27 06:57:18;;;;;;;6.93;5.00;;;;;;;21.85;96.88;100444.06;5032555;28;20216;-66
2022/06/27 06:59:46;;;;;;;7.87;5.17;;;;;;;21.80;96.93;100460.13;5034971;28;20291;-66
2022/06/27 07:02:15;;;;;;;5.10;4.57;;;;;;;21.78;97.63;100451.41;5031157;28;20702;-66
2022/06/27 07:04:43;;;;;;;7.20;4.80;;;;;;;21.78;96.69;100454.09;5031977;28;20300;-66
2022/06/27 07:07:12;;;;;;;10.80;5.43;;;;;;;21.79;95.76;100466.56;5032332;28;20201;-66
2022/06/27 07:09:40;;;;;;;7.67;4.90;;;;;;;21.78;96.40;100479.22;5025286;28;20237;-66
2022/06/27 07:12:09;;;;;;;7.17;4.67;;;;;;;21.77;95.87;100482.97;5017219;28;20278;-66
2022/06/27 07:14:38;;;;;;;8.07;5.17;;;;;;;21.78;95.64;100481.09;5032685;28;20200;-67
2022/06/27 07:17:07;;;;;;;5.90;4.60;;;;;;;21.77;93.17;100480.28;5031453;28;20452;-66
2022/06/27 07:19:36;;;;;;;8.30;4.47;;;;;;;21.81;91.45;100477.13;5038305;28;20243;-66
2022/06/27 07:22:05;;;;;;;6.43;5.67;;;;;;;21.82;92.31;100487.69;5029478;28;20744;-65
2022/06/27 07:24:33;;;;;;;7.30;5.30;;;;;;;21.78;91.86;100484.63;5027782;28;20295;-65
2022/06/27 07:27:01;;;;;;;10.20;5.70;;;;;;;21.76;93.57;100491.28;5028630;28;20299;-65
2022/06/27 07:29:29;;;;;;;6.17;4.97;;;;;;;21.67;93.80;100465.63;5020785;28;20263;-64
2022/06/27 07:31:59;;;;;;;14.53;5.27;;;;;;;21.62;92.18;100471.69;5031194;28;20681;-65
2022/06/27 07:34:27;;;;;;;6.10;5.10;;;;;;;21.63;93.35;100480.59;5030726;28;20301;-67
2022/06/27 07:37:08;;;;;;;7.60;5.67;;;;;;;21.65;93.59;100476.63;5031318;28;20245;-65
2022/06/27 07:39:37;;;;;;;7.80;5.10;;;;;;;21.67;93.81;100473.72;5031415;28;20247;-68
2022/06/27 07:42:05;;;;;;;9.87;5.37;;;;;;;21.67;92.59;100479.94;5031149;28;20295;-65
2022/06/27 07:44:34;;;;;;;7.97;5.97;;;;;;;21.75;91.87;100476.13;5031569;28;20205;-65
2022/06/27 07:47:14;;;;;;;7.63;5.70;;;;;;;21.78;94.18;100481.09;5031945;28;20287;-65
2022/06/27 07:49:42;;;;;;;10.13;5.03;;;;;;;21.75;95.26;100476.13;5031045;28;20207;-66
2022/06/27 07:52:10;;;;;;;9.43;5.73;;;;;;;21.72;95.68;100471.19;5031159;28;20296;-66
2022/06/27 07:54:37;;;;;;;8.93;5.50;;;;;;;21.71;94.73;100469.53;5031124;28;20209;-66
2022/06/27 07:57:06;;;;;;;5.43;4.50;;;;;;;21.72;93.62;100471.19;5031324;28;20385;-66
2022/06/27 07:59:34;;;;;;;7.43;5.17;;;;;;;21.74;94.61;100458.28;5044809;28;20204;-66
2022/06/27 08:02:02;;;;;;;10.73;6.27;;;;;;;21.64;95.77;100439.06;5030629;28;20244;-68
2022/06/27 08:04:32;;;;;;;8.47;6.30;;;;;;;21.60;97.00;100464.84;5030808;28;20213;-66
2022/06/27 08:07:01;;;;;;;6.87;5.50;;;;;;;21.62;96.57;100471.69;5031186;28;20216;-66
2022/06/27 08:09:29;;;;;;;7.63;5.77;;;;;;;21.66;96.13;100485.53;5030987;28;20205;-65
2022/06/27 08:11:57;;;;;;;7.67;6.07;;;;;;;21.74;95.22;100491.50;5030603;28;20250;-66
2022/06/27 08:14:27;;;;;;;7.40;6.43;;;;;;;21.82;94.03;100503.06;5028991;28;20201;-67
2022/06/27 08:16:57;;;;;;;11.20;6.20;;;;;;;21.80;92.81;100500.59;5030605;28;20220;-67
2022/06/27 08:19:26;;;;;;;8.20;6.70;;;;;;;21.90;92.67;100503.59;5029301;28;20598;-67
2022/06/27 08:21:55;;;;;;;7.33;6.37;;;;;;;21.95;93.10;100509.19;5029955;28;20239;-66
2022/06/27 08:24:23;;;;;;;8.10;6.90;;;;;;;21.99;91.04;100515.81;5030115;28;20491;-67
2022/06/27 08:26:52;;;;;;;9.40;6.77;;;;;;;22.04;89.75;100518.69;5030332;28;20299;-67
2022/06/27 08:29:20;;;;;;;12.20;6.77;;;;;;;22.17;88.70;100523.13;5031307;28;20212;-67
2022/06/27 08:31:52;;;;;;;11.30;7.03;;;;;;;22.27;88.21;100522.59;5030256;28;20291;-66
2022/06/27 08:34:21;;;;;;;10.77;7.37;;;;;;;22.34;87.11;100526.91;5030068;28;20213;-65
2022/06/27 08:36:50;;;;;;;14.77;8.20;;;;;;;22.38;89.11;100536.22;5030865;28;20247;-66
2022/06/27 08:39:19;;;;;;;10.93;8.13;;;;;;;22.42;86.76;100531.19;5030544;28;20218;-65
2022/06/27 08:41:48;;;;;;;14.90;8.07;;;;;;;22.37;84.44;100533.72;5029826;28;20262;-66
2022/06/27 08:44:16;;;;;;;10.77;8.20;;;;;;;22.35;84.86;100531.25;5030112;28;20239;-65
2022/06/27 08:46:46;;;;;;;13.23;9.27;;;;;;;22.42;85.63;100526.63;5030498;28;20300;-65
2022/06/27 08:49:16;;;;;;;12.47;9.70;;;;;;;22.49;85.72;100530.06;5030453;28;20217;-68
2022/06/27 08:51:44;;;;;;;12.57;9.70;;;;;;;22.55;86.98;100528.34;5030388;28;20267;-67
2022/06/27 08:54:12;;;;;;;14.20;10.63;;;;;;;22.58;87.27;100519.81;5031596;28;20881;-66
2022/06/27 08:56:43;;;;;;;15.95;9.65;;;;;;;22.60;85.04;100511.47;5030448;28;20664;-66
2022/06/27 08:59:11;;;;;;;12.00;9.30;;;;;;;22.71;83.33;100516.94;5030644;28;20205;-66
2022/06/27 09:01:47;;;;;;;11.33;8.57;;;;;;;22.92;84.14;100531.88;5028943;28;20670;-68
2022/06/27 09:04:15;;;;;;;11.20;9.33;;;;;;;23.10;85.55;100528.34;5030128;28;20580;-66
2022/06/27 09:06:57;;;;;;;9.50;7.90;;;;;;;23.23;83.76;100528.97;5029627;28;20209;-67
2022/06/27 09:09:27;;;;;;;9.45;7.93;;;;;;;23.19;82.45;100532.38;5029890;28;20233;-67
2022/06/27 09:12:04;;;;;;;12.35;7.85;;;;;;;23.04;80.85;100550.88;5030214;28;20752;-66
2022/06/27 09:14:37;;;;;;;9.70;8.32;;;;;;;23.00;80.58;100542.41;5030325;28;20212;-65
2022/06/27 09:17:12;;;;;;;11.90;8.25;;;;;;;22.97;81.49;100534.72;5029728;28;20686;-67
2022/06/27 09:19:48;;;;;;;10.07;8.18;;;;;;;22.94;80.88;100542.47;5030270;28;20204;-67
2022/06/27 09:22:17;;;;;;;8.83;7.43;;;;;;;22.92;80.71;100536.47;5029737;28;20224;-67
2022/06/27 09:24:59;;;;;;;9.73;7.05;;;;;;;22.92;80.59;100542.72;5026484;28;20282;-66
2022/06/27 09:27:40;;;;;;;10.10;7.18;;;;;;;23.16;81.25;100551.75;5016760;28;20229;-66
2022/06/27 09:30:29;;;;;;;9.05;6.80;;;;;;;23.48;81.12;100541.53;5030115;28;20309;-65
2022/06/27 09:32:59;;;;;;;9.68;6.40;;;;;;;23.75;77.77;100547.41;5029057;28;20541;-66
2022/06/27 09:35:30;;;;;;;6.90;5.45;;;;;;;23.87;75.73;100550.94;5029988;28;20243;-67
2022/06/27 09:38:03;;;;;;;11.27;5.82;;;;;;;23.89;76.87;100552.38;5029828;28;20216;-67
2022/06/27 09:40:39;;;;;;;5.70;4.95;;;;;;;23.96;77.17;100555.78;5032210;28;20212;-66
2022/06/27 09:43:10;;;;;;;7.13;5.13;;;;;;;24.07;76.71;100565.00;5033005;28;20267;-65
2022/06/27 09:45:38;;;;;;;7.75;5.43;;;;;;;23.98;74.78;100561.81;5044165;28;20226;-67
2022/06/27 09:48:16;;;;;;;7.03;4.60;;;;;;;24.02;77.89;100578.41;5033152;28;20212;-67
2022/06/27 09:50:47;;;;;;;5.68;4.10;;;;;;;24.26;76.76;100571.16;5033847;28;20213;-66
2022/06/27 09:53:18;;;;;;;7.80;4.32;;;;;;;24.40;70.59;100580.69;5019034;28;20204;-66
2022/06/27 09:55:47;;;;;;;6.88;3.75;;;;;;;24.52;68.32;100581.53;5033241;28;20287;-65
2022/06/27 09:58:17;;;;;;;4.55;3.45;;;;;;;24.73;67.63;100582.78;5033573;28;20212;-65
2022/06/27 10:00:48;;;;;;;6.97;3.83;;;;;;;24.74;68.66;100569.00;5034364;28;20216;-66
2022/06/27 10:03:16;;;;;;;5.47;3.60;;;;;;;24.76;67.58;100576.88;5032890;28;20248;-66
2022/06/27 10:05:45;;;;;;;5.35;3.35;;;;;;;24.71;65.60;100593.06;5022942;28;20651;-66
2022/06/27 10:08:14;;;;;;;8.50;4.22;;;;;;;24.61;65.84;100593.66;5033515;28;20205;-64
2022/06/27 10:11:06;;;;;;;5.78;3.55;;;;;;;24.54;68.09;100603.78;5033434;28;20200;-65
2022/06/27 10:13:38;;;;;;;7.90;4.13;;;;;;;24.48;66.79;100612.03;5031607;28;20575;-66
2022/06/27 10:16:12;;;;;;;6.20;3.95;;;;;;;24.44;68.16;100619.84;5032682;28;20217;-66
2022/06/27 10:19:03;;;;;;;7.22;3.70;;;;;;;24.45;69.22;100612.53;5032570;28;20258;-67
2022/06/27 10:21:32;;;;;;;4.07;3.22;;;;;;;24.45;68.21;100605.19;5026830;28;20205;-66
2022/06/27 10:24:33;;;;;;;3.38;2.40;;;;;;;24.43;64.96;100604.63;5018882;28;20276;-66
2022/06/27 10:27:06;;;;;;;2.97;2.30;;;;;;;24.50;65.46;100599.06;5033161;28;20267;-66
2022/06/27 10:29:44;;;;;;;4.10;2.00;;;;;;;24.52;64.30;100605.09;5032787;28;20292;-66
2022/06/27 10:32:39;;;;;;;11.75;2.33;;;;;;;24.41;64.75;100616.75;5032118;28;20604;-66
2022/06/27 10:35:13;;;;;;;6.97;2.25;;;;;;;24.29;66.13;100625.69;5026079;28;20593;-64
2022/06/27 10:37:43;;;;;;;3.78;1.75;;;;;;;24.10;65.54;100634.94;5029001;28;20204;-65
2022/06/27 10:40:47;;;;;;;2.80;2.00;;;;;;;23.96;64.98;100622.66;5032497;28;20213;-65
2022/06/27 10:43:45;;;;;;;3.83;2.17;;;;;;;23.85;65.92;100615.34;5031643;28;20232;-66
2022/06/27 10:46:43;;;;;;;3.45;2.33;;;;;;;23.78;65.79;100625.44;5019303;28;20209;-66
2022/06/27 10:49:25;;;;;;;3.85;2.33;;;;;;;23.70;66.78;100631.19;5032336;28;20209;-66
2022/06/27 10:51:54;;;;;;;3.83;2.45;;;;;;;23.68;67.92;100638.69;5020214;28;20614;-66
2022/06/27 10:54:22;;;;;;;5.43;3.50;;;;;;;23.58;67.32;100628.41;5031781;28;20681;-66
2022/06/27 10:56:52;;;;;;;6.93;3.17;;;;;;;23.45;64.88;100634.81;5034625;28;20241;-66
2022/06/27 10:59:59;;;;;;;5.90;3.38;;;;;;;23.43;65.00;100631.50;5036444;28;20204;-65
2022/06/27 11:02:29;;;;;;;6.85;3.47;;;;;;;23.41;67.57;100639.03;5029342;28;20266;-65
2022/06/27 11:04:58;;;;;;;7.18;3.75;;;;;;;23.43;68.61;100647.75;5031728;28;20197;-66
2022/06/27 11:07:26;;;;;;;4.57;3.60;;;;;;;23.51;70.36;100652.88;5033780;28;20205;-66
2022/06/27 11:09:54;;;;;;;5.43;4.15;;;;;;;23.53;69.08;100645.38;5031229;28;20557;-66
2022/06/27 11:12:28;;;;;;;10.00;4.57;;;;;;;23.57;68.26;100648.44;5031398;28;20287;-65
2022/06/27 11:14:58;;;;;;;7.40;5.25;;;;;;;23.60;67.63;100654.22;5028334;28;20231;-66
2022/06/27 11:17:32;;;;;;;9.18;5.80;;;;;;;23.61;65.65;100647.75;5025684;28;20636;-66
2022/06/27 11:20:11;;;;;;;12.77;5.53;;;;;;;23.67;64.96;100642.47;5031062;28;20690;-66
2022/06/27 11:23:02;;;;;;;5.50;5.00;;;;;;;23.71;63.96;100640.97;5031469;28;20239;-66
2022/06/27 11:25:31;;;;;;;6.28;4.40;;;;;;;23.74;61.98;100640.50;5031903;28;20663;-65
2022/06/27 11:31:57;;;;;;;6.28;4.57;;;;;;;23.74;61.50;100648.63;5031367;28;20213;-66
2022/06/27 11:33:38;;;;;;;4.95;3.80;;;;;;;23.82;60.88;100651.00;5029233;28;20279;-66
2022/06/27 11:36:06;;;;;;;7.68;3.95;;;;;;;23.86;61.08;100646.78;5031032;28;20308;-66
2022/06/27 11:38:43;;;;;;;4.50;3.45;;;;;;;23.81;61.53;100654.78;5031160;28;20217;-66
2022/06/27 11:41:12;;;;;;;6.18;3.70;;;;;;;23.75;61.61;100651.09;5031450;28;20303;-66
2022/06/27 11:43:56;;;;;;;6.70;4.68;;;;;;;23.65;62.38;100655.44;5030660;28;20319;-65